Time;durP1;ratioP1;P1;durP2;ratioP2;P2;SDS_P1;SDS_P2;PMS_P1;PMS_P2;Temp;Humidity;BMP_temperature;BMP_pressure;BME280_temperature;BME280_humidity;BME280_pressure;Samples;Min_cycle;Max_cycle;Signal;HPM_P1;HPM_P2
2022/05/26 00:00:08;;;;;;;5.77;4.80;;;11.00;99.90;;;;;;5013654;28;20202;-83
2022/05/26 00:02:37;;;;;;;6.57;4.87;;;11.00;99.90;;;;;;5013558;28;20305;-84
2022/05/26 00:05:05;;;;;;;7.50;5.33;;;10.90;99.90;;;;;;5013385;28;20259;-83
2022/05/26 00:07:32;;;;;;;6.50;4.97;;;10.90;99.90;;;;;;5013560;28;20560;-84
2022/05/26 00:09:59;;;;;;;5.07;4.57;;;10.90;99.90;;;;;;5013410;28;20208;-83
2022/05/26 00:12:26;;;;;;;6.73;5.10;;;10.80;99.90;;;;;;5013548;28;20269;-83
2022/05/26 00:14:53;;;;;;;7.83;5.30;;;10.80;99.90;;;;;;5013467;28;20257;-83
2022/05/26 00:17:21;;;;;;;6.30;4.80;;;10.80;99.90;;;;;;5013107;28;20200;-83
2022/05/26 00:19:50;;;;;;;5.60;5.03;;;10.70;99.90;;;;;;5012992;28;20210;-83
2022/05/26 00:22:17;;;;;;;5.70;5.07;;;10.70;99.90;;;;;;5013157;28;20699;-83
2022/05/26 00:24:44;;;;;;;5.47;4.83;;;10.70;99.90;;;;;;5013594;28;20259;-84
2022/05/26 00:27:11;;;;;;;7.83;5.10;;;10.60;99.90;;;;;;5013270;28;20198;-82
2022/05/26 00:29:38;;;;;;;6.63;4.83;;;10.60;99.90;;;;;;5013175;28;20232;-83
2022/05/26 00:32:06;;;;;;;9.77;5.00;;;10.60;99.90;;;;;;5013094;28;20263;-82
2022/05/26 00:34:34;;;;;;;8.73;5.10;;;10.60;99.90;;;;;;5013407;28;20202;-83
2022/05/26 00:37:06;;;;;;;7.57;5.03;;;10.50;99.90;;;;;;5013131;28;20219;-82
2022/05/26 00:39:33;;;;;;;7.23;5.47;;;10.50;99.90;;;;;;5013135;28;20193;-83
2022/05/26 00:42:02;;;;;;;7.77;5.50;;;10.50;99.90;;;;;;5012591;28;20285;-87
2022/05/26 00:44:29;;;;;;;8.70;5.53;;;10.50;99.90;;;;;;5013090;28;20197;-83
2022/05/26 00:47:01;;;;;;;6.40;5.40;;;10.50;99.90;;;;;;5013019;28;20195;-84
2022/05/26 00:49:39;;;;;;;6.63;5.27;;;10.50;99.90;;;;;;5013054;28;20245;-84
2022/05/26 00:52:09;;;;;;;7.20;5.50;;;10.40;99.90;;;;;;5012962;28;20186;-82
2022/05/26 00:54:38;;;;;;;6.00;5.00;;;10.40;99.90;;;;;;5012576;28;20652;-86
2022/05/26 00:57:09;;;;;;;9.03;5.73;;;10.40;99.90;;;;;;5012753;28;20226;-85
2022/05/26 00:59:43;;;;;;;8.80;5.10;;;10.30;99.90;;;;;;5012590;28;20230;-84
2022/05/26 01:02:13;;;;;;;8.43;5.80;;;10.30;99.90;;;;;;5012697;28;20202;-82
2022/05/26 01:04:43;;;;;;;6.20;5.60;;;10.30;99.90;;;;;;5012500;28;20241;-85
2022/05/26 01:07:15;;;;;;;7.20;5.73;;;10.30;1.00;;;;;;5012517;28;20609;-85
2022/05/26 01:09:42;;;;;;;6.70;5.33;;;10.30;1.00;;;;;;5012482;28;20690;-85
2022/05/26 01:12:09;;;;;;;7.93;5.53;;;10.30;1.00;;;;;;5012337;28;20543;-83
2022/05/26 01:14:39;;;;;;;7.53;6.10;;;10.30;1.00;;;;;;5012302;28;20601;-85
2022/05/26 01:17:16;;;;;;;9.63;5.47;;;10.40;1.00;;;;;;5012383;28;20230;-84
2022/05/26 01:20:12;;;;;;;7.37;5.87;;;10.40;1.00;;;;;;5012618;28;20190;-84
2022/05/26 01:23:24;;;;;;;6.50;5.57;;;10.50;1.00;;;;;;5012588;28;20273;-83
2022/05/26 01:26:30;;;;;;;5.77;5.13;;;10.60;1.00;;;;;;5012855;28;20206;-86
2022/05/26 01:29:44;;;;;;;5.63;4.90;;;10.60;1.00;;;;;;5012264;28;20586;-83
2022/05/26 01:32:21;;;;;;;7.30;5.60;;;10.60;1.00;;;;;;5012466;28;20281;-84
2022/05/26 01:34:56;;;;;;;7.97;5.20;;;10.70;1.00;;;;;;5012454;28;20598;-84
2022/05/26 01:37:30;;;;;;;6.30;5.37;;;10.70;1.00;;;;;;5012705;28;20194;-83
2022/05/26 01:40:03;;;;;;;7.37;5.73;;;10.80;1.00;;;;;;5012485;28;20180;-83
2022/05/26 01:42:39;;;;;;;7.87;5.50;;;10.80;1.00;;;;;;5012493;28;20192;-84
2022/05/26 01:45:14;;;;;;;6.93;5.20;;;10.80;1.00;;;;;;5012385;28;20188;-85
2022/05/26 01:47:50;;;;;;;7.70;5.70;;;10.80;1.00;;;;;;5012124;28;20197;-86
2022/05/26 01:50:25;;;;;;;8.83;6.10;;;10.80;1.00;;;;;;5012498;28;20188;-83
2022/05/26 01:53:04;;;;;;;7.50;5.73;;;10.90;1.00;;;;;;5012214;28;20207;-83
2022/05/26 01:55:39;;;;;;;8.97;5.57;;;10.90;1.00;;;;;;5012457;28;20180;-83
2022/05/26 01:58:13;;;;;;;6.67;5.53;;;10.90;1.00;;;;;;5012448;28;20268;-85
2022/05/26 02:00:40;;;;;;;6.77;5.53;;;11.00;1.00;;;;;;5011996;28;20189;-85
2022/05/26 02:03:13;;;;;;;8.63;5.77;;;11.00;1.00;;;;;;5012006;28;20595;-84
2022/05/26 02:05:43;;;;;;;7.37;5.03;;;11.00;1.00;;;;;;5012258;28;20206;-85
2022/05/26 02:08:15;;;;;;;7.37;5.50;;;10.90;1.00;;;;;;5012131;28;20197;-84
2022/05/26 02:10:46;;;;;;;9.33;5.50;;;10.90;1.00;;;;;;5012276;28;20234;-84
2022/05/26 02:13:18;;;;;;;7.37;5.80;;;10.80;1.00;;;;;;5012119;28;20212;-83
2022/05/26 02:15:50;;;;;;;6.33;5.67;;;10.80;1.00;;;;;;5012289;28;20522;-85
2022/05/26 02:18:23;;;;;;;7.07;5.67;;;10.80;1.00;;;;;;5014925;28;20193;-84
2022/05/26 02:20:55;;;;;;;6.97;5.90;;;10.80;1.00;;;;;;5015696;28;20180;-83
2022/05/26 02:23:29;;;;;;;8.90;6.13;;;10.70;1.00;;;;;;5015479;28;20189;-86
2022/05/26 02:25:56;;;;;;;6.87;5.73;;;10.70;1.00;;;;;;5015291;28;20247;-83
2022/05/26 02:28:23;;;;;;;8.20;6.00;;;10.70;1.00;;;;;;5015614;28;20257;-85
2022/05/26 02:30:51;;;;;;;7.70;6.37;;;10.60;1.00;;;;;;5015126;28;20232;-83
2022/05/26 02:33:20;;;;;;;7.87;6.00;;;10.60;1.00;;;;;;5015414;28;20272;-84
2022/05/26 02:35:50;;;;;;;6.93;5.83;;;10.60;1.00;;;;;;5015009;28;20206;-84
2022/05/26 02:38:19;;;;;;;8.90;5.60;;;10.60;1.00;;;;;;5015257;28;20195;-83
2022/05/26 02:40:47;;;;;;;6.70;6.00;;;10.70;1.00;;;;;;5014899;28;20800;-84
2022/05/26 02:43:19;;;;;;;7.80;5.70;;;10.70;1.00;;;;;;5015007;28;20198;-84
2022/05/26 02:45:56;;;;;;;11.70;5.87;;;10.70;1.00;;;;;;5014813;28;20635;-83
2022/05/26 02:48:40;;;;;;;7.00;5.73;;;10.70;1.00;;;;;;5015317;28;20186;-83
2022/05/26 02:51:16;;;;;;;7.70;5.90;;;10.70;1.00;;;;;;5015172;28;20264;-86
2022/05/26 02:53:49;;;;;;;6.87;5.53;;;10.80;1.00;;;;;;5014893;28;20295;-86
2022/05/26 02:56:27;;;;;;;7.00;5.63;;;10.80;1.00;;;;;;5014627;28;20249;-84
2022/05/26 02:59:11;;;;;;;8.50;5.60;;;10.80;1.00;;;;;;5015178;28;20289;-83
2022/05/26 03:01:44;;;;;;;12.37;5.20;;;10.90;1.00;;;;;;5014880;28;20188;-87
2022/05/26 03:04:23;;;;;;;6.13;5.13;;;10.90;1.00;;;;;;5023022;28;20631;-83
2022/05/26 03:06:54;;;;;;;5.87;5.20;;;10.90;1.00;;;;;;5033051;28;20191;-87
2022/05/26 03:09:38;;;;;;;7.07;5.07;;;10.90;1.00;;;;;;5037237;28;20192;-87
2022/05/26 03:12:40;;;;;;;7.43;5.97;;;11.00;1.00;;;;;;5039372;28;20233;-85
2022/05/26 03:15:10;;;;;;;6.07;5.10;;;11.00;1.00;;;;;;5039211;28;20214;-86
2022/05/26 03:17:45;;;;;;;7.50;5.17;;;11.00;1.00;;;;;;5039044;28;20209;-86
2022/05/26 03:20:24;;;;;;;6.37;5.30;;;11.00;1.00;;;;;;5039299;28;20185;-87
2022/05/26 03:23:03;;;;;;;7.23;5.03;;;11.10;1.00;;;;;;5038530;28;20198;-86
2022/05/26 03:25:51;;;;;;;6.03;5.10;;;11.10;1.00;;;;;;5038953;28;20200;-85
2022/05/26 03:28:21;;;;;;;7.30;4.87;;;11.20;1.00;;;;;;5038717;28;20233;-85
2022/05/26 03:30:54;;;;;;;5.13;4.63;;;11.30;1.00;;;;;;5038390;28;20201;-87
2022/05/26 03:33:26;;;;;;;6.87;5.50;;;11.40;1.00;;;;;;5037275;28;20241;-88
2022/05/26 03:41:46;;;;;;;5.60;4.80;;;11.50;1.00;;;;;;5025031;28;20187;-86
2022/05/26 03:44:13;;;;;;;5.47;4.30;;;11.50;1.00;;;;;;5021676;28;20190;-84
2022/05/26 03:46:47;;;;;;;6.77;4.93;;;11.60;1.00;;;;;;5021161;28;20222;-87
2022/05/26 03:49:14;;;;;;;6.07;4.73;;;11.60;1.00;;;;;;5022757;28;20178;-85
2022/05/26 03:51:43;;;;;;;5.27;4.40;;;11.70;1.00;;;;;;5018419;28;20194;-84
2022/05/26 03:54:10;;;;;;;5.23;4.73;;;11.70;1.00;;;;;;5013767;28;20280;-85
2022/05/26 03:56:37;;;;;;;5.93;5.23;;;11.80;1.00;;;;;;5013165;28;20276;-84
2022/05/26 03:59:04;;;;;;;4.80;4.30;;;11.80;1.00;;;;;;5013398;28;20646;-83
2022/05/26 04:01:31;;;;;;;9.53;4.83;;;11.90;1.00;;;;;;5013576;28;20647;-87
2022/05/26 04:03:58;;;;;;;7.67;4.90;;;12.00;1.00;;;;;;5020157;28;20183;-85
2022/05/26 04:06:36;;;;;;;4.77;4.07;;;12.00;1.00;;;;;;5017173;28;20199;-85
2022/05/26 04:09:05;;;;;;;5.23;4.73;;;12.10;1.00;;;;;;5016548;28;20234;-83
2022/05/26 04:11:32;;;;;;;4.67;4.20;;;12.10;1.00;;;;;;5015470;28;20194;-84
2022/05/26 04:13:59;;;;;;;4.93;3.83;;;12.20;1.00;;;;;;5018082;28;20215;-88
2022/05/26 04:16:26;;;;;;;4.97;3.90;;;12.30;1.00;;;;;;5019690;28;20209;-83
2022/05/26 04:18:53;;;;;;;4.80;3.70;;;12.40;1.00;;;;;;5014803;28;20257;-84
2022/05/26 04:21:24;;;;;;;4.30;3.90;;;12.60;1.00;;;;;;5026014;28;20644;-85
2022/05/26 04:23:51;;;;;;;3.80;3.40;;;12.70;1.00;;;;;;5023157;28;20697;-83
2022/05/26 04:26:20;;;;;;;4.20;3.50;;;12.80;1.00;;;;;;5014845;28;20195;-86
2022/05/26 04:28:47;;;;;;;3.43;3.13;;;12.90;1.00;;;;;;5013927;28;20228;-84
2022/05/26 04:31:14;;;;;;;4.90;3.60;;;12.90;1.00;;;;;;5015175;28;20253;-90
2022/05/26 04:33:41;;;;;;;3.93;3.30;;;13.00;99.90;;;;;;5016070;28;20664;-85
2022/05/26 04:36:08;;;;;;;4.57;3.40;;;13.10;99.90;;;;;;5016001;28;20656;-84
2022/05/26 04:38:40;;;;;;;4.23;3.00;;;13.20;99.90;;;;;;5016371;28;20679;-85
2022/05/26 04:41:07;;;;;;;3.33;3.03;;;13.30;99.90;;;;;;5020085;28;20574;-83
2022/05/26 04:43:36;;;;;;;5.37;3.30;;;13.40;99.90;;;;;;5017833;28;20224;-84
2022/05/26 04:46:06;;;;;;;4.23;3.07;;;13.60;99.90;;;;;;5018377;28;20724;-85
2022/05/26 04:48:37;;;;;;;5.53;3.00;;;13.70;99.90;;;;;;5021969;28;20202;-86
2022/05/26 04:51:07;;;;;;;3.87;3.03;;;13.80;99.90;;;;;;5018171;28;20689;-83
2022/05/26 04:53:34;;;;;;;3.83;3.43;;;13.90;99.90;;;;;;5017369;28;20305;-90
2022/05/26 04:56:30;;;;;;;;;;;;;;;;;;;;;
2022/05/26 04:58:59;;;;;;;3.63;2.87;;;14.00;99.90;;;;;;5015626;28;20282;-85
2022/05/26 05:01:26;;;;;;;3.30;3.00;;;14.00;99.90;;;;;;5020733;28;20195;-84
2022/05/26 05:03:53;;;;;;;8.03;3.30;;;14.10;99.90;;;;;;5026749;28;20191;-88
2022/05/26 05:06:20;;;;;;;3.20;2.90;;;14.20;96.20;;;;;;5020877;28;20198;-88
2022/05/26 05:08:47;;;;;;;5.03;3.10;;;14.20;47.50;;;;;;5022038;28;20191;-87
2022/05/26 05:11:17;;;;;;;4.97;3.00;;;14.30;13.40;;;;;;5019230;28;20199;-91
2022/05/26 05:13:47;;;;;;;6.10;2.90;;;14.40;1.00;;;;;;5021015;28;20776;-87
2022/05/26 05:16:22;;;;;;;3.20;2.90;;;14.40;1.00;;;;;;5018155;28;20206;-86
2022/05/26 05:18:50;;;;;;;9.93;3.07;;;14.50;1.00;;;;;;5015174;28;20182;-86
2022/05/26 05:21:27;;;;;;;4.53;2.87;;;14.60;1.00;;;;;;5018310;28;20199;-86
2022/05/26 05:24:05;;;;;;;3.53;3.07;;;14.70;1.00;;;;;;5017750;28;20197;-90
2022/05/26 05:26:35;;;;;;;3.97;2.70;;;14.90;1.00;;;;;;5015090;28;20184;-88
2022/05/26 05:29:11;;;;;;;4.83;3.53;;;15.00;1.00;;;;;;5016797;28;20248;-89
2022/05/26 05:31:44;;;;;;;3.50;2.90;;;15.10;1.00;;;;;;5016982;28;20270;-91
2022/05/26 05:34:23;;;;;;;5.63;3.20;;;15.40;1.00;;;;;;5012938;28;20686;-90
2022/05/26 05:36:50;;;;;;;11.83;3.47;;;15.70;1.00;;;;;;5016805;28;20257;-87
2022/05/26 05:39:17;;;;;;;8.83;3.83;;;16.20;1.00;;;;;;5013538;28;20653;-87
2022/05/26 05:41:44;;;;;;;4.57;2.80;;;16.60;1.00;;;;;;5015191;28;20219;-87
2022/05/26 05:44:17;;;;;;;7.72;3.30;;;16.70;1.00;;;;;;5018381;28;20202;-93
2022/05/26 05:46:57;;;;;;;8.18;4.10;;;16.80;1.00;;;;;;5015636;28;20224;-89
2022/05/26 05:49:26;;;;;;;4.80;2.38;;;17.00;1.00;;;;;;5014582;28;20289;-89
2022/05/26 05:51:54;;;;;;;3.35;2.55;;;17.30;1.00;;;;;;5014077;28;20244;-88
2022/05/26 05:54:22;;;;;;;3.47;2.70;;;17.50;99.90;;;;;;5023590;28;20233;-88
2022/05/26 05:56:49;;;;;;;4.20;2.55;;;17.70;99.90;;;;;;5016022;28;20682;-87
2022/05/26 05:59:17;;;;;;;7.90;4.70;;;17.80;99.90;;;;;;5017534;28;20737;-86
2022/05/26 06:01:45;;;;;;;3.58;2.15;;;17.80;99.90;;;;;;5016969;28;20202;-86
2022/05/26 06:04:12;;;;;;;3.30;2.10;;;18.00;99.90;;;;;;5022128;28;20206;-88
2022/05/26 06:09:29;;;;;;;7.65;3.55;;;18.30;99.90;;;;;;5211575;22;20293;-86
2022/05/26 06:12:03;;;;;;;3.00;1.90;;;18.50;99.90;;;;;;5085678;28;20188;-87
2022/05/26 06:14:30;;;;;;;2.28;1.55;;;19.00;99.90;;;;;;5086073;28;20199;-87
2022/05/26 06:17:20;;;;;;;1.88;1.73;;;20.20;99.90;;;;;;5086476;28;20181;-88
2022/05/26 06:19:55;;;;;;;8.55;5.60;;;21.40;99.90;;;;;;5057912;28;20184;-87
2022/05/26 06:22:35;;;;;;;17.55;9.02;;;22.90;99.90;;;;;;5083086;28;20575;-89
2022/05/26 06:25:16;;;;;;;4.88;2.78;;;24.30;1.00;;;;;;5088083;28;20207;-89
2022/05/26 06:30:35;;;;;;;6.18;1.75;;;25.00;1.00;;;;;;5088084;28;20632;-88
2022/05/26 06:38:36;;;;;;;2.65;1.65;;;28.20;1.00;;;;;;5089280;28;20195;-86
2022/05/26 06:43:58;;;;;;;15.07;9.10;;;27.70;1.00;;;;;;5084349;28;20254;-88
2022/05/26 06:46:35;;;;;;;5.35;2.50;;;27.10;1.00;;;;;;5085604;28;20204;-86
2022/05/26 06:49:06;;;;;;;7.72;3.53;;;26.60;1.00;;;;;;5084659;28;20685;-85
2022/05/26 06:51:36;;;;;;;5.18;3.40;;;26.10;1.00;;;;;;5085563;28;20157;-87
2022/05/26 06:54:10;;;;;;;4.43;1.98;;;25.70;1.00;;;;;;5086506;28;20181;-87
2022/05/26 06:56:47;;;;;;;5.38;1.80;;;25.90;1.00;;;;;;5088188;28;20185;-85
2022/05/26 06:59:14;;;;;;;3.70;1.92;;;26.80;1.00;;;;;;5089270;28;20166;-88
2022/05/26 07:01:50;;;;;;;2.63;1.80;;;27.70;1.00;;;;;;5082652;28;20660;-84
2022/05/26 07:04:34;;;;;;;2.55;1.40;;;28.80;1.00;;;;;;5088693;28;20196;-89
2022/05/26 07:07:02;;;;;;;1.92;1.52;;;29.10;1.00;;;;;;5084422;28;20192;-88
2022/05/26 07:09:30;;;;;;;4.25;1.63;;;28.70;1.00;;;;;;5082650;28;20232;-87
2022/05/26 07:11:58;;;;;;;3.03;2.55;;;28.30;1.00;;;;;;5081366;28;20199;-90
2022/05/26 07:14:28;;;;;;;2.50;1.73;;;28.00;1.00;;;;;;5088218;28;20219;-88
2022/05/26 07:16:55;;;;;;;2.85;1.65;;;28.00;1.00;;;;;;5076150;28;20184;-85
2022/05/26 07:19:23;;;;;;;2.55;1.80;;;27.90;1.00;;;;;;5074249;28;20246;-86
2022/05/26 07:21:50;;;;;;;2.28;1.20;;;27.70;1.00;;;;;;5073847;28;20610;-86
2022/05/26 07:24:18;;;;;;;3.25;2.90;;;27.60;1.00;;;;;;5076053;28;20222;-86
2022/05/26 07:26:46;;;;;;;3.90;3.20;;;27.30;1.00;;;;;;5075066;28;20227;-86
2022/05/26 07:29:24;;;;;;;8.10;3.97;;;27.20;1.00;;;;;;5077790;28;20219;-88
2022/05/26 07:31:51;;;;;;;2.88;2.47;;;27.30;1.00;;;;;;5076833;28;20195;-89
2022/05/26 07:34:21;;;;;;;4.72;2.53;;;27.10;1.00;;;;;;5079483;28;20287;-88
2022/05/26 07:42:33;;;;;;;6.63;2.00;;;26.50;1.00;;;;;;5075804;28;20286;-89
2022/05/26 07:45:02;;;;;;;4.88;3.00;;;26.00;1.00;;;;;;5082207;28;20185;-86
2022/05/26 07:47:29;;;;;;;2.65;1.30;;;25.60;1.00;;;;;;5078115;28;20249;-87
2022/05/26 07:49:56;;;;;;;3.85;1.50;;;25.60;1.00;;;;;;5079729;28;20697;-86
2022/05/26 07:52:25;;;;;;;2.45;1.20;;;25.50;1.00;;;;;;5075852;28;20203;-85
2022/05/26 07:54:55;;;;;;;3.00;1.20;;;25.90;1.00;;;;;;5081180;28;20192;-87
2022/05/26 07:57:25;;;;;;;2.42;1.10;;;26.10;1.00;;;;;;5080749;28;20716;-87
2022/05/26 07:59:52;;;;;;;1.30;1.08;;;25.90;1.00;;;;;;5076536;28;20223;-87
2022/05/26 08:02:21;;;;;;;2.28;1.40;;;25.40;1.00;;;;;;5079285;28;20196;-86
2022/05/26 08:04:48;;;;;;;6.25;2.38;;;25.00;1.00;;;;;;5079706;28;20220;-86
2022/05/26 08:09:58;;;;;;;4.82;2.88;;;24.20;1.00;;;;;;5073187;28;20230;-88
2022/05/26 08:12:26;;;;;;;2.25;1.55;;;24.00;1.00;;;;;;5074878;28;20729;-86
2022/05/26 08:14:53;;;;;;;2.50;1.63;;;23.70;1.00;;;;;;5078434;28;20196;-87
2022/05/26 08:17:22;;;;;;;4.70;2.60;;;23.50;1.00;;;;;;5076000;28;20230;-89
2022/05/26 08:19:49;;;;;;;15.85;7.32;;;23.30;1.00;;;;;;5073060;28;20176;-87
2022/05/26 08:22:17;;;;;;;11.13;7.00;;;23.00;1.00;;;;;;5074984;28;20210;-85
2022/05/26 08:24:49;;;;;;;;;;;22.60;1.00;;;;;;5080363;28;20711;-85
2022/05/26 08:27:19;;;;;;;2.53;1.95;;;22.40;1.00;;;;;;5078363;28;20061;-86
2022/05/26 08:29:47;;;;;;;5.70;3.22;;;22.00;1.00;;;;;;5076178;28;20291;-85
2022/05/26 08:32:25;;;;;;;3.63;2.05;;;21.70;1.00;;;;;;5075075;28;20242;-84
2022/05/26 08:34:57;;;;;;;;;;;21.20;1.00;;;;;;5074415;28;20191;-86
2022/05/26 08:37:23;;;;;;;;;;;20.90;1.00;;;;;;5076724;28;19978;-87
2022/05/26 08:39:50;;;;;;;2.90;2.03;;;20.50;1.00;;;;;;5077910;28;20109;-87
2022/05/26 08:42:20;;;;;;;;;;;20.20;1.00;;;;;;5074927;28;20195;-88
2022/05/26 08:44:57;;;;;;;2.95;2.00;;;19.90;1.00;;;;;;5075774;28;20664;-89
2022/05/26 08:47:31;;;;;;;3.47;2.38;;;19.70;1.00;;;;;;5072800;28;20272;-85
2022/05/26 08:50:05;;;;;;;4.68;2.60;;;19.70;1.00;;;;;;5072450;28;20176;-87
2022/05/26 08:52:36;;;;;;;4.85;2.30;;;19.80;1.00;;;;;;5074459;28;20714;-86
2022/05/26 08:55:09;;;;;;;2.75;1.63;;;19.80;1.00;;;;;;5078112;28;20196;-88
2022/05/26 08:57:45;;;;;;;2.90;1.20;;;19.80;1.00;;;;;;5077484;28;20172;-88
2022/05/26 09:00:15;;;;;;;3.08;1.50;;;19.90;1.00;;;;;;5075238;28;20200;-88
2022/05/26 09:02:42;;;;;;;2.67;1.30;;;20.10;1.00;;;;;;5073524;28;20200;-85
2022/05/26 09:05:12;;;;;;;;;;;20.60;1.00;;;;;;5075866;28;20269;-89
2022/05/26 09:13:16;;;;;;;5.50;1.50;;;23.80;1.00;;;;;;5078727;28;20593;-86
2022/05/26 09:15:43;;;;;;;5.13;2.83;;;24.10;1.00;;;;;;5075355;28;20199;-86
2022/05/26 09:18:16;;;;;;;1.48;1.20;;;23.90;1.00;;;;;;5075664;28;20188;-84
2022/05/26 09:20:44;;;;;;;3.17;1.48;;;23.60;1.00;;;;;;5078965;28;20242;-86
2022/05/26 09:23:22;;;;;;;2.13;1.20;;;24.00;1.00;;;;;;5078210;28;20200;-89
2022/05/26 09:25:51;;;;;;;1.65;1.42;;;24.70;1.00;;;;;;5077154;28;20258;-89
2022/05/26 09:28:32;;;;;;;1.90;1.10;;;25.10;1.00;;;;;;5084010;28;20176;-88
2022/05/26 09:31:29;;;;;;;3.15;1.20;;;25.00;1.00;;;;;;5083907;28;20218;-88
2022/05/26 09:34:02;;;;;;;2.05;1.20;;;24.70;1.00;;;;;;5077431;28;20225;-87
2022/05/26 09:36:30;;;;;;;1.77;1.30;;;24.90;1.00;;;;;;5079093;28;20196;-86
2022/05/26 09:38:58;;;;;;;3.03;1.27;;;25.30;1.00;;;;;;5079602;28;20192;-87
2022/05/26 09:41:36;;;;;;;2.58;1.20;;;25.30;1.00;;;;;;5078782;28;20304;-89
2022/05/26 09:44:21;;;;;;;2.22;1.00;;;25.10;1.00;;;;;;5076937;28;20200;-86
2022/05/26 09:46:51;;;;;;;1.20;1.10;;;24.80;1.00;;;;;;5082815;28;20197;-87
2022/05/26 09:49:24;;;;;;;2.83;1.08;;;24.90;1.00;;;;;;5078622;28;20177;-86
2022/05/26 09:51:51;;;;;;;2.17;1.20;;;25.00;1.00;;;;;;5075625;28;20184;-88
2022/05/26 09:54:27;;;;;;;2.25;1.10;;;24.80;1.00;;;;;;5075762;28;20236;-85
2022/05/26 09:56:54;;;;;;;3.50;1.10;;;24.40;1.00;;;;;;5082900;28;20176;-86
2022/05/26 09:59:29;;;;;;;2.78;1.00;;;24.30;1.00;;;;;;5078925;28;20188;-84
2022/05/26 10:02:09;;;;;;;2.30;1.38;;;24.10;1.00;;;;;;5079256;28;20168;-89
2022/05/26 10:04:54;;;;;;;6.00;3.65;;;23.90;1.00;;;;;;5083375;28;20204;-89
2022/05/26 10:07:26;;;;;;;2.60;1.10;;;24.10;1.00;;;;;;5083504;28;20176;-85
2022/05/26 10:10:03;;;;;;;1.33;0.90;;;24.20;1.00;;;;;;5079412;28;20227;-89
2022/05/26 10:12:43;;;;;;;3.20;1.00;;;24.50;1.00;;;;;;5075140;28;20646;-86
2022/05/26 10:15:29;;;;;;;2.75;0.98;;;24.60;1.00;;;;;;5081711;28;20246;-91
2022/05/26 10:18:25;;;;;;;2.55;0.98;;;24.40;1.00;;;;;;5077971;28;20181;-90
2022/05/26 10:21:02;;;;;;;3.45;1.00;;;24.00;1.00;;;;;;5078330;28;20622;-89
2022/05/26 10:23:56;;;;;;;3.65;0.80;;;23.80;1.00;;;;;;5085247;28;20207;-84
2022/05/26 10:26:33;;;;;;;4.05;0.95;;;23.60;1.00;;;;;;5085664;28;20266;-89
2022/05/26 10:29:32;;;;;;;6.30;0.90;;;23.50;1.00;;;;;;5078751;28;20192;-84
2022/05/26 10:32:11;;;;;;;1.80;0.90;;;23.60;1.00;;;;;;5076407;28;20189;-85
2022/05/26 10:34:54;;;;;;;2.70;0.90;;;23.50;1.00;;;;;;5077976;28;20532;-90
2022/05/26 10:37:29;;;;;;;2.60;0.90;;;23.40;1.00;;;;;;5077635;28;20195;-85
2022/05/26 10:40:24;;;;;;;2.92;1.00;;;23.20;1.00;;;;;;5078251;28;20238;-85
2022/05/26 10:42:57;;;;;;;2.05;1.00;;;22.80;1.00;;;;;;5081210;28;20200;-85
2022/05/26 10:45:27;;;;;;;2.83;1.02;;;22.40;1.00;;;;;;5080270;28;20280;-86
2022/05/26 10:48:04;;;;;;;3.00;1.25;;;22.10;1.00;;;;;;5075134;28;20196;-87
2022/05/26 10:50:38;;;;;;;3.28;0.95;;;21.90;1.00;;;;;;5074946;28;20177;-86
2022/05/26 10:53:12;;;;;;;1.50;0.93;;;21.50;1.00;;;;;;5077624;28;20187;-86
2022/05/26 10:55:46;;;;;;;1.38;1.00;;;21.20;1.00;;;;;;5077253;28;20245;-86
2022/05/26 10:58:19;;;;;;;1.50;1.10;;;20.90;1.00;;;;;;5081017;28;20192;-85
2022/05/26 11:00:50;;;;;;;3.33;0.98;;;20.70;1.00;;;;;;5077917;28;20207;-85
2022/05/26 11:03:25;;;;;;;3.28;1.00;;;20.60;1.00;;;;;;5074527;28;20610;-86
2022/05/26 11:05:57;;;;;;;2.83;0.93;;;20.60;1.00;;;;;;5078604;28;20204;-87
2022/05/26 11:08:34;;;;;;;1.65;0.90;;;20.80;1.00;;;;;;5075805;28;20177;-82
2022/05/26 11:11:06;;;;;;;1.67;0.90;;;21.20;1.00;;;;;;5075598;28;20284;-85
2022/05/26 11:13:46;;;;;;;1.63;1.10;;;21.40;1.00;;;;;;5076406;28;20183;-84
2022/05/26 11:19:29;;;;;;;2.00;1.20;;;21.40;1.00;;;;;;5076981;28;20539;-85
2022/05/26 11:21:56;;;;;;;2.03;1.10;;;21.30;1.00;;;;;;5078361;28;20202;-84
2022/05/26 11:24:24;;;;;;;3.05;1.30;;;21.20;1.00;;;;;;5074052;28;20258;-88
2022/05/26 11:26:57;;;;;;;3.10;1.20;;;21.10;1.00;;;;;;5074276;28;20192;-85
2022/05/26 11:29:29;;;;;;;1.55;0.93;;;21.20;1.00;;;;;;5075308;28;20188;-85
2022/05/26 11:38:00;;;;;;;3.30;1.23;;;20.90;1.00;;;;;;5074030;28;20226;-84
2022/05/26 11:40:36;;;;;;;1.95;1.10;;;20.80;1.00;;;;;;5075297;28;20180;-84
2022/05/26 11:43:07;;;;;;;2.75;1.35;;;20.60;1.00;;;;;;5073421;28;20698;-84
2022/05/26 11:45:38;;;;;;;2.03;1.20;;;20.40;1.00;;;;;;5073660;28;20215;-84
2022/05/26 11:48:06;;;;;;;2.28;1.90;;;20.30;1.00;;;;;;5073965;28;20196;-84
2022/05/26 11:50:59;;;;;;;2.53;1.13;;;20.30;1.00;;;;;;5073556;28;20285;-84
2022/05/26 11:53:39;;;;;;;4.15;1.48;;;20.50;1.00;;;;;;5074755;28;20242;-85
2022/05/26 11:56:42;;;;;;;3.90;1.10;;;20.60;1.00;;;;;;5073472;28;20230;-86
2022/05/26 11:59:46;;;;;;;2.17;1.10;;;20.70;1.00;;;;;;5073550;28;20185;-85
2022/05/26 12:02:37;;;;;;;4.50;1.35;;;20.80;1.00;;;;;;5075229;28;20277;-84
2022/05/26 12:05:42;;;;;;;5.30;1.20;;;20.80;1.00;;;;;;5091558;28;20221;-85
2022/05/26 12:11:09;;;;;;;4.20;1.83;;;20.70;1.00;;;;;;5111714;27;20946;-83
2022/05/26 12:13:38;;;;;;;3.42;2.00;;;20.40;1.00;;;;;;5114818;28;20526;-84
2022/05/26 12:16:24;;;;;;;6.72;3.22;;;20.50;1.00;;;;;;5110000;28;20221;-88
2022/05/26 12:18:55;;;;;;;4.45;1.88;;;20.70;1.00;;;;;;5112607;28;20321;-86
2022/05/26 12:21:47;;;;;;;5.55;1.70;;;20.90;1.00;;;;;;5111034;28;20179;-85
2022/05/26 12:24:49;;;;;;;4.10;1.48;;;21.10;1.00;;;;;;5110329;28;20179;-84
2022/05/26 12:27:57;;;;;;;5.88;1.60;;;21.30;1.00;;;;;;5112627;28;20191;-84
2022/05/26 12:30:54;;;;;;;2.30;1.30;;;21.50;1.00;;;;;;5110229;28;20260;-88
2022/05/26 12:33:49;;;;;;;3.10;1.00;;;21.60;1.00;;;;;;5110019;28;20191;-85
2022/05/26 12:36:24;;;;;;;2.13;0.85;;;21.50;1.00;;;;;;5112681;28;20199;-85
2022/05/26 12:39:06;;;;;;;3.58;1.10;;;21.50;1.00;;;;;;5109768;28;20270;-84
2022/05/26 12:41:44;;;;;;;4.18;1.10;;;21.40;1.00;;;;;;5110616;28;20205;-84
2022/05/26 12:44:33;;;;;;;2.55;0.95;;;21.40;1.00;;;;;;5114269;28;20170;-83
2022/05/26 12:47:21;;;;;;;3.80;1.10;;;21.70;1.00;;;;;;5112240;28;20176;-84
2022/05/26 12:49:57;;;;;;;3.08;0.98;;;22.10;1.00;;;;;;5112842;28;20280;-83
2022/05/26 12:52:31;;;;;;;2.50;0.93;;;22.30;1.00;;;;;;5111822;28;20257;-85
2022/05/26 12:55:17;;;;;;;3.22;1.10;;;22.40;1.00;;;;;;5109990;28;20202;-87
2022/05/26 12:57:51;;;;;;;4.60;1.10;;;22.40;1.00;;;;;;5109520;28;20266;-86
2022/05/26 13:00:32;;;;;;;2.63;0.90;;;22.40;1.00;;;;;;5110994;28;20269;-86
2022/05/26 13:03:07;;;;;;;2.83;1.02;;;22.20;1.00;;;;;;5109927;28;20236;-84
2022/05/26 13:05:36;;;;;;;2.35;1.02;;;22.10;1.00;;;;;;5109571;28;20242;-81
2022/05/26 13:08:04;;;;;;;3.78;1.13;;;21.90;1.00;;;;;;5111274;28;20296;-85
2022/05/26 13:10:33;;;;;;;;;;;21.80;1.00;;;;;;5109770;28;20169;-84
2022/05/26 13:13:01;;;;;;;2.60;1.00;;;21.70;1.00;;;;;;5109563;28;20230;-84
2022/05/26 13:15:29;;;;;;;3.65;1.08;;;21.50;1.00;;;;;;5109139;28;20649;-84
2022/05/26 13:17:56;;;;;;;3.08;1.10;;;21.40;1.00;;;;;;5111344;28;20201;-84
2022/05/26 13:20:31;;;;;;;3.60;1.20;;;21.30;1.00;;;;;;5106960;28;20260;-84
2022/05/26 13:22:58;;;;;;;4.68;1.20;;;21.10;1.00;;;;;;5098738;28;20180;-85
2022/05/26 13:25:31;;;;;;;2.80;1.27;;;21.00;1.00;;;;;;5095450;28;20248;-82
2022/05/26 13:28:01;;;;;;;3.58;1.50;;;20.90;1.00;;;;;;5095911;28;20187;-84
2022/05/26 13:33:22;;;;;;;2.63;1.10;;;20.90;1.00;;;;;;5099492;28;20235;-87
2022/05/26 13:36:00;;;;;;;7.25;1.45;;;21.00;1.00;;;;;;5095400;28;20176;-87
2022/05/26 13:38:33;;;;;;;4.40;1.40;;;20.90;1.00;;;;;;5105378;28;20179;-85
2022/05/26 13:41:13;;;;;;;1.73;1.23;;;21.00;1.00;;;;;;5107414;28;20192;-88
2022/05/26 13:43:53;;;;;;;6.45;1.52;;;21.10;1.00;;;;;;5110106;28;20244;-88
2022/05/26 13:46:28;;;;;;;2.67;1.20;;;21.20;1.00;;;;;;5101715;28;20236;-85
2022/05/26 13:49:01;;;;;;;3.50;1.50;;;21.20;1.00;;;;;;5099034;28;20631;-86
2022/05/26 13:51:36;;;;;;;4.18;1.63;;;21.20;1.00;;;;;;5098399;28;20237;-84
2022/05/26 13:54:22;;;;;;;2.80;1.30;;;21.10;1.00;;;;;;5101561;28;20190;-89
2022/05/26 13:57:02;;;;;;;2.88;1.20;;;21.00;1.00;;;;;;5105166;28;20184;-88
2022/05/26 14:02:27;;;;;;;3.22;1.30;;;20.80;1.00;;;;;;5092414;28;20196;-85
2022/05/26 14:05:12;;;;;;;4.45;1.25;;;20.60;1.00;;;;;;5110678;28;20582;-87
2022/05/26 14:08:03;;;;;;;2.08;1.50;;;20.70;1.00;;;;;;5105856;28;20249;-86
2022/05/26 14:10:51;;;;;;;5.00;1.38;;;20.90;1.00;;;;;;5103407;28;20229;-84
2022/05/26 14:13:42;;;;;;;3.47;1.50;;;20.90;1.00;;;;;;5102367;28;20182;-85
2022/05/26 14:16:28;;;;;;;3.13;1.50;;;20.90;1.00;;;;;;5088369;28;20239;-84
2022/05/26 14:19:00;;;;;;;3.20;1.50;;;20.90;1.00;;;;;;5101119;28;20271;-86
2022/05/26 14:21:30;;;;;;;17.77;12.32;;;20.90;1.00;;;;;;5096596;28;20542;-84
2022/05/26 14:24:01;;;;;;;4.88;3.38;;;20.80;1.00;;;;;;5097468;28;20191;-86